sensor_id;sensor_type;location;lat;lon;timestamp;pressure;altitude;pressure_sealevel;temperature;humidity
59391;BME280;53405;57.012;40.984;2023-02-22T00:01:19;98625.56;;;-15.54;76.52
59391;BME280;53405;57.012;40.984;2023-02-22T00:04:14;98624.91;;;-15.59;76.74
59391;BME280;53405;57.012;40.984;2023-02-22T00:07:05;98628.75;;;-15.48;77.07
59391;BME280;53405;57.012;40.984;2023-02-22T00:09:53;98634.56;;;-15.46;77.23
59391;BME280;53405;57.012;40.984;2023-02-22T00:12:41;98635.34;;;-15.43;76.53
59391;BME280;53405;57.012;40.984;2023-02-22T00:15:29;98636.47;;;-15.52;76.44
59391;BME280;53405;57.012;40.984;2023-02-22T00:18:17;98633.06;;;-15.51;75.88
59391;BME280;53405;57.012;40.984;2023-02-22T00:21:05;98640.22;;;-15.66;77.59
59391;BME280;53405;57.012;40.984;2023-02-22T00:23:56;98644.19;;;-15.57;76.67
59391;BME280;53405;57.012;40.984;2023-02-22T00:26:44;98622.75;;;-15.72;77.19
59391;BME280;53405;57.012;40.984;2023-02-22T00:29:33;98649.16;;;-15.54;76.70
59391;BME280;53405;57.012;40.984;2023-02-22T00:32:21;98626.94;;;-15.71;76.83
59391;BME280;53405;57.012;40.984;2023-02-22T00:35:09;98650.00;;;-15.55;76.68
59391;BME280;53405;57.012;40.984;2023-02-22T00:37:59;98646.66;;;-15.55;77.50
59391;BME280;53405;57.012;40.984;2023-02-22T00:40:47;98626.53;;;-15.57;77.11
59391;BME280;53405;57.012;40.984;2023-02-22T00:43:36;98654.91;;;-15.50;77.23
59391;BME280;53405;57.012;40.984;2023-02-22T00:46:23;98646.63;;;-15.54;77.79
59391;BME280;53405;57.012;40.984;2023-02-22T00:49:12;98653.03;;;-15.43;77.50
59391;BME280;53405;57.012;40.984;2023-02-22T00:52:01;98658.78;;;-15.38;77.32
59391;BME280;53405;57.012;40.984;2023-02-22T00:54:49;98663.34;;;-15.24;76.78
59391;BME280;53405;57.012;40.984;2023-02-22T00:57:36;98671.75;;;-15.22;77.61
59391;BME280;53405;57.012;40.984;2023-02-22T01:03:20;98671.94;;;-15.29;76.13
59391;BME280;53405;57.012;40.984;2023-02-22T01:06:08;98662.44;;;-15.49;76.05
59391;BME280;53405;57.012;40.984;2023-02-22T01:08:56;98682.41;;;-15.41;76.53
59391;BME280;53405;57.012;40.984;2023-02-22T01:11:43;98687.38;;;-15.38;75.53
59391;BME280;53405;57.012;40.984;2023-02-22T01:14:31;98683.47;;;-15.48;75.36
59391;BME280;53405;57.012;40.984;2023-02-22T01:17:19;98686.25;;;-15.56;75.69
59391;BME280;53405;57.012;40.984;2023-02-22T01:20:11;98686.34;;;-15.59;75.68
59391;BME280;53405;57.012;40.984;2023-02-22T01:23:00;98696.88;;;-15.74;76.56
59391;BME280;53405;57.012;40.984;2023-02-22T01:25:49;98697.47;;;-15.66;76.53
59391;BME280;53405;57.012;40.984;2023-02-22T01:28:37;98699.94;;;-15.65;75.54
59391;BME280;53405;57.012;40.984;2023-02-22T01:31:25;98695.84;;;-15.69;75.96
59391;BME280;53405;57.012;40.984;2023-02-22T01:34:15;98701.16;;;-15.76;75.83
59391;BME280;53405;57.012;40.984;2023-02-22T01:37:03;98716.41;;;-15.79;75.88
59391;BME280;53405;57.012;40.984;2023-02-22T01:39:52;98706.00;;;-15.98;76.60
59391;BME280;53405;57.012;40.984;2023-02-22T01:42:40;98710.81;;;-15.91;76.58
59391;BME280;53405;57.012;40.984;2023-02-22T01:48:28;98715.75;;;-15.86;75.44
59391;BME280;53405;57.012;40.984;2023-02-22T01:51:21;98727.88;;;-15.99;76.03
59391;BME280;53405;57.012;40.984;2023-02-22T01:54:44;98729.47;;;-15.95;76.41
59391;BME280;53405;57.012;40.984;2023-02-22T01:57:30;98737.06;;;-15.96;76.71
59391;BME280;53405;57.012;40.984;2023-02-22T02:00:19;98734.75;;;-16.04;76.37
59391;BME280;53405;57.012;40.984;2023-02-22T02:03:12;98734.03;;;-16.08;76.53
59391;BME280;53405;57.012;40.984;2023-02-22T02:06:04;98736.22;;;-15.97;76.23
59391;BME280;53405;57.012;40.984;2023-02-22T02:12:06;98744.66;;;-15.96;75.93
59391;BME280;53405;57.012;40.984;2023-02-22T02:15:16;98740.66;;;-16.05;75.95
59391;BME280;53405;57.012;40.984;2023-02-22T02:18:08;98748.94;;;-16.00;76.14
59391;BME280;53405;57.012;40.984;2023-02-22T02:24:27;98747.22;;;-15.98;75.97
59391;BME280;53405;57.012;40.984;2023-02-22T02:27:32;98753.72;;;-15.91;75.71
59391;BME280;53405;57.012;40.984;2023-02-22T02:36:37;98732.88;;;-15.97;75.67
59391;BME280;53405;57.012;40.984;2023-02-22T02:39:36;98757.94;;;-15.91;76.30
59391;BME280;53405;57.012;40.984;2023-02-22T02:42:33;98774.34;;;-15.76;75.28
59391;BME280;53405;57.012;40.984;2023-02-22T02:45:29;98776.31;;;-15.86;75.87
59391;BME280;53405;57.012;40.984;2023-02-22T02:48:22;98779.31;;;-15.75;76.56
59391;BME280;53405;57.012;40.984;2023-02-22T02:51:12;98773.00;;;-15.88;76.48
59391;BME280;53405;57.012;40.984;2023-02-22T02:54:03;98772.78;;;-15.80;75.63
59391;BME280;53405;57.012;40.984;2023-02-22T02:56:50;98770.13;;;-15.76;76.55
59391;BME280;53405;57.012;40.984;2023-02-22T02:59:38;98777.59;;;-15.73;76.62
59391;BME280;53405;57.012;40.984;2023-02-22T03:26:59;98782.03;;;-15.79;76.26
59391;BME280;53405;57.012;40.984;2023-02-22T03:29:55;98805.66;;;-15.54;76.69
59391;BME280;53405;57.012;40.984;2023-02-22T03:32:55;98815.75;;;-15.54;76.36
59391;BME280;53405;57.012;40.984;2023-02-22T03:35:56;98796.44;;;-15.55;76.30
59391;BME280;53405;57.012;40.984;2023-02-22T03:38:49;98810.13;;;-15.62;75.48
59391;BME280;53405;57.012;40.984;2023-02-22T03:41:38;98825.09;;;-15.56;75.09
59391;BME280;53405;57.012;40.984;2023-02-22T03:44:27;98833.59;;;-15.60;75.23
59391;BME280;53405;57.012;40.984;2023-02-22T03:47:27;98833.56;;;-15.58;76.38
59391;BME280;53405;57.012;40.984;2023-02-22T03:50:23;98825.34;;;-15.65;75.81
59391;BME280;53405;57.012;40.984;2023-02-22T03:53:12;98843.28;;;-15.44;75.86
59391;BME280;53405;57.012;40.984;2023-02-22T03:56:03;98849.28;;;-15.49;74.92
59391;BME280;53405;57.012;40.984;2023-02-22T03:58:54;98849.63;;;-15.61;74.37
59391;BME280;53405;57.012;40.984;2023-02-22T04:01:42;98843.75;;;-15.61;75.17
59391;BME280;53405;57.012;40.984;2023-02-22T04:04:29;98849.66;;;-15.63;75.29
59391;BME280;53405;57.012;40.984;2023-02-22T04:07:18;98836.28;;;-15.66;74.62
59391;BME280;53405;57.012;40.984;2023-02-22T04:10:09;98864.19;;;-15.71;75.05
59391;BME280;53405;57.012;40.984;2023-02-22T04:12:59;98847.13;;;-15.92;75.00
59391;BME280;53405;57.012;40.984;2023-02-22T04:15:46;98869.59;;;-15.83;74.08
59391;BME280;53405;57.012;40.984;2023-02-22T04:18:34;98869.50;;;-15.80;74.89
59391;BME280;53405;57.012;40.984;2023-02-22T04:21:22;98862.34;;;-15.95;75.00
59391;BME280;53405;57.012;40.984;2023-02-22T04:24:10;98846.19;;;-16.21;74.09
59391;BME280;53405;57.012;40.984;2023-02-22T04:27:00;98881.94;;;-16.05;74.06
59391;BME280;53405;57.012;40.984;2023-02-22T04:29:49;98853.81;;;-16.24;74.79
59391;BME280;53405;57.012;40.984;2023-02-22T04:32:38;98878.03;;;-16.17;74.01
59391;BME280;53405;57.012;40.984;2023-02-22T04:35:26;98908.81;;;-16.04;74.02
59391;BME280;53405;57.012;40.984;2023-02-22T04:38:14;98918.09;;;-16.05;73.80
59391;BME280;53405;57.012;40.984;2023-02-22T04:41:01;98911.00;;;-16.25;74.58
59391;BME280;53405;57.012;40.984;2023-02-22T04:43:50;98917.75;;;-16.27;74.40
59391;BME280;53405;57.012;40.984;2023-02-22T04:46:41;98920.34;;;-16.28;74.10
59391;BME280;53405;57.012;40.984;2023-02-22T04:49:31;98928.09;;;-16.36;74.42
59391;BME280;53405;57.012;40.984;2023-02-22T04:52:19;98892.84;;;-16.39;75.47
59391;BME280;53405;57.012;40.984;2023-02-22T04:55:07;98924.25;;;-16.16;74.39
59391;BME280;53405;57.012;40.984;2023-02-22T04:57:56;98925.06;;;-16.16;74.38
59391;BME280;53405;57.012;40.984;2023-02-22T05:00:44;98931.88;;;-16.20;75.91
59391;BME280;53405;57.012;40.984;2023-02-22T05:03:32;98932.53;;;-16.11;74.04
59391;BME280;53405;57.012;40.984;2023-02-22T05:06:19;98914.41;;;-16.27;74.12
59391;BME280;53405;57.012;40.984;2023-02-22T05:09:07;98936.69;;;-16.09;74.13
59391;BME280;53405;57.012;40.984;2023-02-22T05:11:55;98935.22;;;-16.19;75.73
59391;BME280;53405;57.012;40.984;2023-02-22T05:14:42;98942.56;;;-16.10;74.26
59391;BME280;53405;57.012;40.984;2023-02-22T05:17:30;98946.03;;;-16.12;74.42
59391;BME280;53405;57.012;40.984;2023-02-22T05:20:30;98946.56;;;-15.99;75.76
59391;BME280;53405;57.012;40.984;2023-02-22T05:23:18;98929.16;;;-16.10;73.80
59391;BME280;53405;57.012;40.984;2023-02-22T05:26:07;98943.31;;;-16.05;74.57
59391;BME280;53405;57.012;40.984;2023-02-22T05:28:57;98949.97;;;-16.02;73.84
59391;BME280;53405;57.012;40.984;2023-02-22T05:31:44;98955.81;;;-16.02;73.35
59391;BME280;53405;57.012;40.984;2023-02-22T05:34:32;98956.78;;;-16.06;74.27
59391;BME280;53405;57.012;40.984;2023-02-22T05:37:19;98958.38;;;-16.03;73.81
59391;BME280;53405;57.012;40.984;2023-02-22T05:40:07;98960.69;;;-15.94;74.41
59391;BME280;53405;57.012;40.984;2023-02-22T05:42:57;98969.03;;;-15.90;74.30
59391;BME280;53405;57.012;40.984;2023-02-22T05:45:45;98975.69;;;-15.88;73.79
59391;BME280;53405;57.012;40.984;2023-02-22T05:48:33;98967.13;;;-15.80;74.89
59391;BME280;53405;57.012;40.984;2023-02-22T05:51:20;98972.94;;;-15.78;74.93
59391;BME280;53405;57.012;40.984;2023-02-22T05:54:08;98981.47;;;-15.83;72.45
59391;BME280;53405;57.012;40.984;2023-02-22T05:56:56;98970.78;;;-15.94;72.83
59391;BME280;53405;57.012;40.984;2023-02-22T05:59:43;98975.44;;;-15.77;73.86
59391;BME280;53405;57.012;40.984;2023-02-22T06:02:33;98985.97;;;-15.63;73.38
59391;BME280;53405;57.012;40.984;2023-02-22T06:05:21;98983.53;;;-15.66;72.36
59391;BME280;53405;57.012;40.984;2023-02-22T06:08:09;98986.16;;;-15.70;72.30
59391;BME280;53405;57.012;40.984;2023-02-22T06:10:56;98992.94;;;-15.72;71.78
59391;BME280;53405;57.012;40.984;2023-02-22T06:13:51;98992.13;;;-15.73;72.08
59391;BME280;53405;57.012;40.984;2023-02-22T06:16:39;98996.22;;;-15.69;72.43
59391;BME280;53405;57.012;40.984;2023-02-22T06:19:27;99002.63;;;-15.55;72.47
59391;BME280;53405;57.012;40.984;2023-02-22T06:22:16;99004.16;;;-15.50;74.57
59391;BME280;53405;57.012;40.984;2023-02-22T06:25:06;99000.00;;;-15.18;74.73
59391;BME280;53405;57.012;40.984;2023-02-22T06:27:54;99005.78;;;-15.14;72.93
59391;BME280;53405;57.012;40.984;2023-02-22T06:30:41;99000.31;;;-14.99;71.76
59391;BME280;53405;57.012;40.984;2023-02-22T06:33:29;99013.66;;;-14.94;72.36
59391;BME280;53405;57.012;40.984;2023-02-22T06:36:16;99008.63;;;-14.95;70.75
59391;BME280;53405;57.012;40.984;2023-02-22T06:39:04;99018.91;;;-15.01;70.85
59391;BME280;53405;57.012;40.984;2023-02-22T06:41:51;99013.28;;;-15.11;69.69
59391;BME280;53405;57.012;40.984;2023-02-22T06:44:41;99025.94;;;-15.13;70.98
59391;BME280;53405;57.012;40.984;2023-02-22T06:47:28;99020.16;;;-15.16;71.35
59391;BME280;53405;57.012;40.984;2023-02-22T06:50:26;99037.31;;;-14.98;70.99
59391;BME280;53405;57.012;40.984;2023-02-22T06:53:15;99041.81;;;-14.76;73.47
59391;BME280;53405;57.012;40.984;2023-02-22T06:56:02;99046.72;;;-14.42;71.31
59391;BME280;53405;57.012;40.984;2023-02-22T06:58:50;99040.69;;;-14.38;71.40
59391;BME280;53405;57.012;40.984;2023-02-22T07:01:41;99025.22;;;-14.57;69.06
59391;BME280;53405;57.012;40.984;2023-02-22T07:04:29;99040.78;;;-14.41;68.33
59391;BME280;53405;57.012;40.984;2023-02-22T07:07:17;99029.09;;;-14.73;68.86
59391;BME280;53405;57.012;40.984;2023-02-22T07:10:06;99034.47;;;-14.85;68.80
59391;BME280;53405;57.012;40.984;2023-02-22T07:12:54;99056.19;;;-14.78;71.68
59391;BME280;53405;57.012;40.984;2023-02-22T07:15:42;98992.44;;;-15.19;69.07
59391;BME280;53405;57.012;40.984;2023-02-22T07:18:30;99058.94;;;-14.86;70.50
59391;BME280;53405;57.012;40.984;2023-02-22T07:21:17;99062.97;;;-14.50;71.01
59391;BME280;53405;57.012;40.984;2023-02-22T07:24:05;99063.44;;;-14.36;71.92
59391;BME280;53405;57.012;40.984;2023-02-22T07:26:53;99060.19;;;-14.41;70.08
59391;BME280;53405;57.012;40.984;2023-02-22T07:29:43;99053.63;;;-14.47;69.10
59391;BME280;53405;57.012;40.984;2023-02-22T07:32:33;99064.31;;;-14.67;67.83
59391;BME280;53405;57.012;40.984;2023-02-22T07:35:24;99060.31;;;-14.76;70.53
59391;BME280;53405;57.012;40.984;2023-02-22T07:38:13;99057.81;;;-14.47;70.46
59391;BME280;53405;57.012;40.984;2023-02-22T07:41:01;99063.50;;;-14.39;69.60
59391;BME280;53405;57.012;40.984;2023-02-22T07:43:48;99069.63;;;-14.18;68.70
59391;BME280;53405;57.012;40.984;2023-02-22T07:46:36;99073.16;;;-14.24;69.03
59391;BME280;53405;57.012;40.984;2023-02-22T07:49:23;99074.78;;;-14.21;67.89
59391;BME280;53405;57.012;40.984;2023-02-22T07:52:11;99071.22;;;-14.14;68.71
59391;BME280;53405;57.012;40.984;2023-02-22T07:54:58;99070.47;;;-13.89;67.71
59391;BME280;53405;57.012;40.984;2023-02-22T07:57:48;99071.59;;;-13.71;67.92
59391;BME280;53405;57.012;40.984;2023-02-22T08:00:37;99064.25;;;-13.79;67.77
59391;BME280;53405;57.012;40.984;2023-02-22T08:03:25;99070.63;;;-13.67;67.65
59391;BME280;53405;57.012;40.984;2023-02-22T08:06:13;99049.41;;;-13.63;68.50
59391;BME280;53405;57.012;40.984;2023-02-22T08:09:00;99076.34;;;-13.35;66.83
59391;BME280;53405;57.012;40.984;2023-02-22T08:11:48;99080.75;;;-13.15;66.97
59391;BME280;53405;57.012;40.984;2023-02-22T08:14:36;99067.97;;;-12.87;66.64
59391;BME280;53405;57.012;40.984;2023-02-22T08:17:24;99069.56;;;-12.84;68.12
59391;BME280;53405;57.012;40.984;2023-02-22T08:20:12;99064.09;;;-11.82;63.98
59391;BME280;53405;57.012;40.984;2023-02-22T08:23:00;99064.03;;;-10.76;60.29
59391;BME280;53405;57.012;40.984;2023-02-22T08:25:47;99071.41;;;-10.70;59.16
59391;BME280;53405;57.012;40.984;2023-02-22T08:28:35;99074.41;;;-11.01;59.83
59391;BME280;53405;57.012;40.984;2023-02-22T08:31:22;99069.31;;;-11.01;60.32
59391;BME280;53405;57.012;40.984;2023-02-22T08:34:10;99071.34;;;-10.49;58.18
59391;BME280;53405;57.012;40.984;2023-02-22T08:36:57;99078.19;;;-9.94;56.60
59391;BME280;53405;57.012;40.984;2023-02-22T08:39:45;99071.41;;;-10.70;57.87
59391;BME280;53405;57.012;40.984;2023-02-22T08:42:32;99058.66;;;-10.70;56.67
59391;BME280;53405;57.012;40.984;2023-02-22T08:45:20;99064.34;;;-10.84;57.84
59391;BME280;53405;57.012;40.984;2023-02-22T08:48:08;99077.50;;;-10.74;58.19
59391;BME280;53405;57.012;40.984;2023-02-22T08:50:55;99061.81;;;-11.04;58.10
59391;BME280;53405;57.012;40.984;2023-02-22T08:53:42;99083.63;;;-10.78;58.04
59391;BME280;53405;57.012;40.984;2023-02-22T08:56:30;99094.38;;;-10.92;57.26
59391;BME280;53405;57.012;40.984;2023-02-22T08:59:19;99087.50;;;-11.74;60.89
59391;BME280;53405;57.012;40.984;2023-02-22T09:02:13;99086.13;;;-12.27;62.35
59391;BME280;53405;57.012;40.984;2023-02-22T09:05:01;99085.09;;;-12.45;62.17
59391;BME280;53405;57.012;40.984;2023-02-22T09:07:52;99086.38;;;-12.58;63.12
59391;BME280;53405;57.012;40.984;2023-02-22T09:10:39;99080.09;;;-12.72;63.36
59391;BME280;53405;57.012;40.984;2023-02-22T09:13:27;99085.59;;;-13.09;64.68
59391;BME280;53405;57.012;40.984;2023-02-22T09:16:14;99089.34;;;-12.94;66.83
59391;BME280;53405;57.012;40.984;2023-02-22T09:19:02;99085.75;;;-12.88;66.37
59391;BME280;53405;57.012;40.984;2023-02-22T09:21:54;99086.09;;;-12.74;66.51
59391;BME280;53405;57.012;40.984;2023-02-22T09:24:41;99086.34;;;-12.57;65.86
59391;BME280;53405;57.012;40.984;2023-02-22T09:27:29;99084.75;;;-12.59;65.58
59391;BME280;53405;57.012;40.984;2023-02-22T09:30:27;99084.44;;;-12.50;66.28
59391;BME280;53405;57.012;40.984;2023-02-22T09:33:19;99084.88;;;-12.62;66.94
59391;BME280;53405;57.012;40.984;2023-02-22T09:36:07;99084.31;;;-12.47;64.25
59391;BME280;53405;57.012;40.984;2023-02-22T09:38:55;99077.69;;;-12.51;66.87
59391;BME280;53405;57.012;40.984;2023-02-22T09:47:54;99084.38;;;-12.25;65.76
59391;BME280;53405;57.012;40.984;2023-02-22T09:50:45;99070.88;;;-12.27;64.83
59391;BME280;53405;57.012;40.984;2023-02-22T09:53:39;99087.66;;;-12.23;66.57
59391;BME280;53405;57.012;40.984;2023-02-22T09:56:28;99091.63;;;-12.15;64.42
59391;BME280;53405;57.012;40.984;2023-02-22T09:59:23;99078.47;;;-12.03;65.09
59391;BME280;53405;57.012;40.984;2023-02-22T10:08:08;99101.38;;;-12.05;66.84
59391;BME280;53405;57.012;40.984;2023-02-22T10:23:32;99109.94;;;-11.85;63.95
59391;BME280;53405;57.012;40.984;2023-02-22T10:26:25;99092.81;;;-12.02;65.69
59391;BME280;53405;57.012;40.984;2023-02-22T10:32:16;99105.63;;;-11.61;64.01
59391;BME280;53405;57.012;40.984;2023-02-22T10:35:32;99108.63;;;-11.73;64.75
59391;BME280;53405;57.012;40.984;2023-02-22T10:38:29;99091.09;;;-11.79;64.65
59391;BME280;53405;57.012;40.984;2023-02-22T10:41:32;99115.59;;;-11.56;65.20
59391;BME280;53405;57.012;40.984;2023-02-22T10:44:20;99115.88;;;-11.42;64.08
59391;BME280;53405;57.012;40.984;2023-02-22T10:47:10;99089.94;;;-11.50;63.90
59391;BME280;53405;57.012;40.984;2023-02-22T10:50:03;99110.56;;;-11.36;63.99
59391;BME280;53405;57.012;40.984;2023-02-22T10:52:51;99113.84;;;-11.34;64.15
59391;BME280;53405;57.012;40.984;2023-02-22T10:56:04;99119.44;;;-11.03;64.60
59391;BME280;53405;57.012;40.984;2023-02-22T10:58:57;99117.34;;;-11.14;61.78
59391;BME280;53405;57.012;40.984;2023-02-22T11:01:46;99106.97;;;-11.10;62.23
59391;BME280;53405;57.012;40.984;2023-02-22T11:04:49;99121.56;;;-10.94;61.75
59391;BME280;53405;57.012;40.984;2023-02-22T11:07:37;99126.91;;;-11.00;63.72
59391;BME280;53405;57.012;40.984;2023-02-22T11:10:31;99119.50;;;-10.84;63.09
59391;BME280;53405;57.012;40.984;2023-02-22T11:13:37;99123.56;;;-10.80;62.29
59391;BME280;53405;57.012;40.984;2023-02-22T11:16:40;99135.34;;;-10.78;61.87
59391;BME280;53405;57.012;40.984;2023-02-22T11:19:30;99126.09;;;-10.80;60.38
59391;BME280;53405;57.012;40.984;2023-02-22T11:22:25;99105.25;;;-10.11;59.38
59391;BME280;53405;57.012;40.984;2023-02-22T11:25:21;99124.09;;;-9.40;58.20
59391;BME280;53405;57.012;40.984;2023-02-22T11:28:26;99111.75;;;-9.13;58.08
59391;BME280;53405;57.012;40.984;2023-02-22T11:31:27;99131.16;;;-8.58;54.69
59391;BME280;53405;57.012;40.984;2023-02-22T11:34:31;99123.69;;;-8.45;54.73
59391;BME280;53405;57.012;40.984;2023-02-22T11:37:33;99136.28;;;-8.76;54.02
59391;BME280;53405;57.012;40.984;2023-02-22T11:40:22;99124.41;;;-8.77;54.20
59391;BME280;53405;57.012;40.984;2023-02-22T11:43:18;99132.84;;;-9.10;56.34
59391;BME280;53405;57.012;40.984;2023-02-22T11:46:18;99136.22;;;-9.27;55.04
59391;BME280;53405;57.012;40.984;2023-02-22T11:49:10;99134.69;;;-9.67;57.60
59391;BME280;53405;57.012;40.984;2023-02-22T11:52:11;99144.47;;;-9.21;57.83
59391;BME280;53405;57.012;40.984;2023-02-22T11:55:16;99146.13;;;-9.03;57.96
59391;BME280;53405;57.012;40.984;2023-02-22T11:58:32;99152.50;;;-9.12;55.82
59391;BME280;53405;57.012;40.984;2023-02-22T12:01:35;99148.69;;;-9.03;55.26
59391;BME280;53405;57.012;40.984;2023-02-22T12:04:38;99150.94;;;-8.79;56.72
59391;BME280;53405;57.012;40.984;2023-02-22T12:10:51;99170.28;;;-8.24;53.92
59391;BME280;53405;57.012;40.984;2023-02-22T12:22:52;99169.19;;;-8.20;54.62
59391;BME280;53405;57.012;40.984;2023-02-22T12:26:01;99166.75;;;-8.06;52.70
59391;BME280;53405;57.012;40.984;2023-02-22T12:28:58;99163.81;;;-8.47;55.55
59391;BME280;53405;57.012;40.984;2023-02-22T12:31:57;99176.81;;;-8.36;55.12
59391;BME280;53405;57.012;40.984;2023-02-22T12:34:50;99171.47;;;-8.31;54.78
59391;BME280;53405;57.012;40.984;2023-02-22T12:41:24;99173.88;;;-8.44;53.06
59391;BME280;53405;57.012;40.984;2023-02-22T12:44:17;99178.56;;;-8.87;54.96
59391;BME280;53405;57.012;40.984;2023-02-22T12:47:07;99179.38;;;-8.87;56.70
59391;BME280;53405;57.012;40.984;2023-02-22T12:50:19;99187.25;;;-9.09;55.88
59391;BME280;53405;57.012;40.984;2023-02-22T12:53:17;99187.28;;;-9.28;56.09
59391;BME280;53405;57.012;40.984;2023-02-22T12:59:25;99177.34;;;-9.15;58.01
59391;BME280;53405;57.012;40.984;2023-02-22T13:02:47;99196.00;;;-9.70;59.48
59391;BME280;53405;57.012;40.984;2023-02-22T13:05:40;99204.25;;;-9.46;58.73
59391;BME280;53405;57.012;40.984;2023-02-22T13:18:24;99203.09;;;-9.96;62.47
59391;BME280;53405;57.012;40.984;2023-02-22T13:21:39;99201.41;;;-10.16;62.19
59391;BME280;53405;57.012;40.984;2023-02-22T13:27:40;99203.00;;;-10.32;62.90
59391;BME280;53405;57.012;40.984;2023-02-22T13:30:37;99204.28;;;-10.43;62.98
59391;BME280;53405;57.012;40.984;2023-02-22T13:49:27;99228.97;;;-10.86;65.21
59391;BME280;53405;57.012;40.984;2023-02-22T13:52:23;99230.28;;;-10.77;66.92
59391;BME280;53405;57.012;40.984;2023-02-22T13:55:21;99229.88;;;-10.66;63.56
59391;BME280;53405;57.012;40.984;2023-02-22T13:58:13;99236.78;;;-10.91;65.56
59391;BME280;53405;57.012;40.984;2023-02-22T14:01:01;99217.31;;;-11.14;63.44
59391;BME280;53405;57.012;40.984;2023-02-22T14:03:49;99217.25;;;-11.12;68.48
59391;BME280;53405;57.012;40.984;2023-02-22T14:06:38;99239.69;;;-11.00;66.50
59391;BME280;53405;57.012;40.984;2023-02-22T14:15:18;99245.13;;;-11.31;65.91
59391;BME280;53405;57.012;40.984;2023-02-22T14:18:15;99254.50;;;-11.55;66.12
59391;BME280;53405;57.012;40.984;2023-02-22T14:21:21;99263.97;;;-11.60;69.20
59391;BME280;53405;57.012;40.984;2023-02-22T14:24:13;99268.28;;;-11.63;67.73
59391;BME280;53405;57.012;40.984;2023-02-22T14:27:03;99231.97;;;-11.88;68.03
59391;BME280;53405;57.012;40.984;2023-02-22T14:29:55;99271.72;;;-11.64;67.90
59391;BME280;53405;57.012;40.984;2023-02-22T14:32:43;99274.53;;;-11.48;68.38
59391;BME280;53405;57.012;40.984;2023-02-22T14:35:38;99275.41;;;-11.49;67.36
59391;BME280;53405;57.012;40.984;2023-02-22T14:38:36;99256.06;;;-11.53;69.33
59391;BME280;53405;57.012;40.984;2023-02-22T14:41:26;99276.91;;;-11.43;68.14
59391;BME280;53405;57.012;40.984;2023-02-22T14:44:22;99270.75;;;-11.37;67.34
59391;BME280;53405;57.012;40.984;2023-02-22T14:47:18;99261.47;;;-11.38;69.02
59391;BME280;53405;57.012;40.984;2023-02-22T14:50:13;99272.22;;;-11.54;68.33
59391;BME280;53405;57.012;40.984;2023-02-22T14:53:25;99286.75;;;-11.57;68.32
59391;BME280;53405;57.012;40.984;2023-02-22T14:59:07;99296.84;;;-11.56;68.79
59391;BME280;53405;57.012;40.984;2023-02-22T15:02:09;99301.78;;;-11.51;69.37
59391;BME280;53405;57.012;40.984;2023-02-22T15:04:58;99300.03;;;-11.49;69.72
59391;BME280;53405;57.012;40.984;2023-02-22T15:08:00;99294.09;;;-11.50;71.16
59391;BME280;53405;57.012;40.984;2023-02-22T15:10:50;99298.94;;;-11.43;73.44
59391;BME280;53405;57.012;40.984;2023-02-22T15:13:49;99305.53;;;-11.38;72.83
59391;BME280;53405;57.012;40.984;2023-02-22T15:16:41;99319.94;;;-11.62;71.96
59391;BME280;53405;57.012;40.984;2023-02-22T15:19:58;99317.44;;;-11.40;71.60
59391;BME280;53405;57.012;40.984;2023-02-22T15:22:47;99318.75;;;-11.52;72.57
59391;BME280;53405;57.012;40.984;2023-02-22T15:25:36;99322.16;;;-11.53;72.56
59391;BME280;53405;57.012;40.984;2023-02-22T15:28:27;99330.84;;;-11.58;73.42
59391;BME280;53405;57.012;40.984;2023-02-22T15:31:28;99326.75;;;-11.63;74.33
59391;BME280;53405;57.012;40.984;2023-02-22T15:34:29;99335.66;;;-11.51;73.57
59391;BME280;53405;57.012;40.984;2023-02-22T15:37:21;99339.50;;;-11.64;73.10
59391;BME280;53405;57.012;40.984;2023-02-22T15:40:17;99332.44;;;-11.56;73.13
59391;BME280;53405;57.012;40.984;2023-02-22T15:43:07;99356.00;;;-11.51;71.69
59391;BME280;53405;57.012;40.984;2023-02-22T15:45:56;99352.63;;;-11.76;72.58
59391;BME280;53405;57.012;40.984;2023-02-22T15:49:06;99359.56;;;-11.56;74.44
59391;BME280;53405;57.012;40.984;2023-02-22T15:52:07;99364.03;;;-11.63;73.61
59391;BME280;53405;57.012;40.984;2023-02-22T15:55:00;99364.91;;;-11.89;72.00
59391;BME280;53405;57.012;40.984;2023-02-22T15:57:50;99367.50;;;-11.91;72.95
59391;BME280;53405;57.012;40.984;2023-02-22T16:00:41;99365.56;;;-12.08;72.99
59391;BME280;53405;57.012;40.984;2023-02-22T16:03:45;99361.81;;;-12.23;73.51
59391;BME280;53405;57.012;40.984;2023-02-22T16:06:35;99367.00;;;-12.26;72.24
59391;BME280;53405;57.012;40.984;2023-02-22T16:09:25;99371.78;;;-12.16;73.82
59391;BME280;53405;57.012;40.984;2023-02-22T16:15:15;99361.00;;;-12.23;71.00
59391;BME280;53405;57.012;40.984;2023-02-22T16:18:23;99369.28;;;-12.18;72.13
59391;BME280;53405;57.012;40.984;2023-02-22T16:21:14;99375.53;;;-12.28;73.95
59391;BME280;53405;57.012;40.984;2023-02-22T16:24:02;99376.59;;;-12.09;71.39
59391;BME280;53405;57.012;40.984;2023-02-22T16:30:16;99384.50;;;-12.45;72.30
59391;BME280;53405;57.012;40.984;2023-02-22T16:33:11;99393.47;;;-12.61;70.97
59391;BME280;53405;57.012;40.984;2023-02-22T16:36:04;99400.28;;;-12.63;74.58
59391;BME280;53405;57.012;40.984;2023-02-22T16:38:54;99394.44;;;-12.65;72.52
59391;BME280;53405;57.012;40.984;2023-02-22T16:41:41;99373.16;;;-12.90;71.73
59391;BME280;53405;57.012;40.984;2023-02-22T16:44:30;99389.28;;;-12.91;72.28
59391;BME280;53405;57.012;40.984;2023-02-22T16:47:18;99388.50;;;-12.93;72.46
59391;BME280;53405;57.012;40.984;2023-02-22T16:50:06;99385.66;;;-12.83;73.03
59391;BME280;53405;57.012;40.984;2023-02-22T16:52:54;99399.88;;;-12.78;73.58
59391;BME280;53405;57.012;40.984;2023-02-22T16:55:46;99396.75;;;-12.86;73.38
59391;BME280;53405;57.012;40.984;2023-02-22T16:58:37;99382.78;;;-13.01;71.70
59391;BME280;53405;57.012;40.984;2023-02-22T17:01:25;99402.72;;;-12.88;73.28